sensor_id;sensor_type;location;lat;lon;timestamp;pressure;altitude;pressure_sealevel;temperature;humidity
51617;BME280;37697;52.588;13.394;2023-04-08T06:28:25;101826.44;;;5.05;91.56
51617;BME280;37697;52.588;13.394;2023-04-08T08:04:29;101912.97;;;6.49;90.11
51617;BME280;37697;52.588;13.394;2023-04-08T08:09:55;101920.52;;;6.71;90.00
51617;BME280;37697;52.588;13.394;2023-04-08T08:15:20;101916.45;;;6.85;90.11
51617;BME280;37697;52.588;13.394;2023-04-08T08:20:46;101919.55;;;7.23;90.61
51617;BME280;37697;52.588;13.394;2023-04-08T08:26:12;101923.66;;;7.42;89.80
51617;BME280;37697;52.588;13.394;2023-04-08T08:31:50;101932.86;;;7.59;89.24
51617;BME280;37697;52.588;13.394;2023-04-08T08:37:08;101939.63;;;7.76;88.32
51617;BME280;37697;52.588;13.394;2023-04-08T08:42:52;101942.02;;;7.71;87.36
51617;BME280;37697;52.588;13.394;2023-04-08T08:48:31;101946.20;;;7.76;87.88
51617;BME280;37697;52.588;13.394;2023-04-08T08:54:09;101945.95;;;8.06;87.76
51617;BME280;37697;52.588;13.394;2023-04-08T08:59:35;101950.30;;;8.16;87.86
51617;BME280;37697;52.588;13.394;2023-04-08T09:05:02;101958.30;;;8.25;87.68
51617;BME280;37697;52.588;13.394;2023-04-08T09:10:28;101966.06;;;8.27;86.48
51617;BME280;37697;52.588;13.394;2023-04-08T09:16:04;101970.95;;;8.17;85.04
51617;BME280;37697;52.588;13.394;2023-04-08T09:21:23;101975.15;;;8.10;84.71
51617;BME280;37697;52.588;13.394;2023-04-08T09:26:46;101980.67;;;8.19;85.00
51617;BME280;37697;52.588;13.394;2023-04-08T09:32:12;101983.27;;;8.09;83.68
51617;BME280;37697;52.588;13.394;2023-04-08T09:37:37;101992.23;;;8.02;84.30
51617;BME280;37697;52.588;13.394;2023-04-08T09:43:05;101995.73;;;8.06;84.46
51617;BME280;37697;52.588;13.394;2023-04-08T09:48:38;101997.09;;;8.09;83.93
51617;BME280;37697;52.588;13.394;2023-04-08T09:54:13;101994.85;;;8.20;84.20
51617;BME280;37697;52.588;13.394;2023-04-08T09:59:44;101997.75;;;8.29;83.53
51617;BME280;37697;52.588;13.394;2023-04-08T10:05:13;101999.80;;;8.36;83.65
51617;BME280;37697;52.588;13.394;2023-04-08T10:10:40;101998.33;;;8.45;83.21
51617;BME280;37697;52.588;13.394;2023-04-08T10:16:20;101997.02;;;8.46;82.94
51617;BME280;37697;52.588;13.394;2023-04-08T10:21:46;102000.16;;;8.51;83.04
51617;BME280;37697;52.588;13.394;2023-04-08T10:27:01;101998.84;;;8.61;82.25
51617;BME280;37697;52.588;13.394;2023-04-08T10:32:29;101999.20;;;8.83;81.49
51617;BME280;37697;52.588;13.394;2023-04-08T10:37:47;101999.58;;;9.14;81.55
51617;BME280;37697;52.588;13.394;2023-04-08T10:43:07;101999.66;;;9.32;79.58
51617;BME280;37697;52.588;13.394;2023-04-08T10:48:19;101999.48;;;9.40;78.03
51617;BME280;37697;52.588;13.394;2023-04-08T10:53:45;101992.96;;;9.61;78.79
51617;BME280;37697;52.588;13.394;2023-04-08T10:59:05;101997.53;;;9.92;78.36
51617;BME280;37697;52.588;13.394;2023-04-08T11:04:25;101995.88;;;10.17;77.52
51617;BME280;37697;52.588;13.394;2023-04-08T11:09:35;101997.31;;;10.53;76.70
51617;BME280;37697;52.588;13.394;2023-04-08T11:14:51;101995.59;;;10.70;75.32
51617;BME280;37697;52.588;13.394;2023-04-08T11:20:00;101998.52;;;10.75;73.29
51617;BME280;37697;52.588;13.394;2023-04-08T11:25:11;101999.94;;;10.75;73.05
51617;BME280;37697;52.588;13.394;2023-04-08T11:30:24;101998.70;;;10.78;73.36
51617;BME280;37697;52.588;13.394;2023-04-08T11:35:51;101999.99;;;10.81;72.92
51617;BME280;37697;52.588;13.394;2023-04-08T11:41:01;102005.59;;;10.90;72.14
51617;BME280;37697;52.588;13.394;2023-04-08T11:46:27;102003.93;;;10.98;72.69
51617;BME280;37697;52.588;13.394;2023-04-08T11:51:54;101998.52;;;11.22;71.82
51617;BME280;37697;52.588;13.394;2023-04-08T11:57:29;101995.92;;;11.81;71.56
51617;BME280;37697;52.588;13.394;2023-04-08T12:02:55;101989.06;;;12.17;68.55
51617;BME280;37697;52.588;13.394;2023-04-08T12:08:21;101990.60;;;12.19;67.91
51617;BME280;37697;52.588;13.394;2023-04-08T12:13:34;101994.78;;;12.22;67.11
51617;BME280;37697;52.588;13.394;2023-04-08T12:18:43;101989.71;;;12.21;67.05
51617;BME280;37697;52.588;13.394;2023-04-08T12:23:51;101988.11;;;12.29;67.07
51617;BME280;37697;52.588;13.394;2023-04-08T12:29:17;101988.94;;;12.19;66.48
51617;BME280;37697;52.588;13.394;2023-04-08T12:34:33;101993.77;;;12.16;66.71
51617;BME280;37697;52.588;13.394;2023-04-08T12:39:42;101998.34;;;12.06;65.62
51617;BME280;37697;52.588;13.394;2023-04-08T12:45:09;101995.42;;;11.85;65.36
51617;BME280;37697;52.588;13.394;2023-04-08T12:50:35;101992.67;;;11.78;66.36
51617;BME280;37697;52.588;13.394;2023-04-08T12:56:01;101984.87;;;12.02;66.61
51617;BME280;37697;52.588;13.394;2023-04-08T13:01:27;101979.41;;;12.55;65.87
51617;BME280;37697;52.588;13.394;2023-04-08T13:06:53;101980.60;;;12.49;63.46
51617;BME280;37697;52.588;13.394;2023-04-08T13:12:11;101973.55;;;12.64;63.98
51617;BME280;37697;52.588;13.394;2023-04-08T13:17:37;101967.98;;;12.95;62.85
51617;BME280;37697;52.588;13.394;2023-04-08T13:23:03;101959.60;;;13.10;61.98
51617;BME280;37697;52.588;13.394;2023-04-08T13:28:29;101957.88;;;13.32;62.20
51617;BME280;37697;52.588;13.394;2023-04-08T13:33:35;101960.51;;;13.35;62.16
51617;BME280;37697;52.588;13.394;2023-04-08T13:39:02;101954.23;;;13.30;60.10
51617;BME280;37697;52.588;13.394;2023-04-08T13:44:28;101957.02;;;13.35;61.12
51617;BME280;37697;52.588;13.394;2023-04-08T13:49:54;101956.35;;;13.42;59.08
51617;BME280;37697;52.588;13.394;2023-04-08T13:55:19;101949.69;;;13.44;58.72
51617;BME280;37697;52.588;13.394;2023-04-08T14:00:45;101953.48;;;13.56;60.14
51617;BME280;37697;52.588;13.394;2023-04-08T14:06:01;101947.70;;;13.77;58.72
51617;BME280;37697;52.588;13.394;2023-04-08T14:11:27;101944.14;;;13.87;58.44
51617;BME280;37697;52.588;13.394;2023-04-08T14:16:46;101943.64;;;13.96;58.17
51617;BME280;37697;52.588;13.394;2023-04-08T14:22:12;101941.59;;;14.13;58.31
51617;BME280;37697;52.588;13.394;2023-04-08T14:27:38;101940.23;;;14.15;58.28
51617;BME280;37697;52.588;13.394;2023-04-08T14:33:01;101945.25;;;14.11;56.74
51617;BME280;37697;52.588;13.394;2023-04-08T14:38:17;101943.53;;;13.64;55.73
51617;BME280;37697;52.588;13.394;2023-04-08T14:43:31;101941.91;;;13.51;56.38
51617;BME280;37697;52.588;13.394;2023-04-08T14:48:46;101939.13;;;13.53;55.81
51617;BME280;37697;52.588;13.394;2023-04-08T14:54:12;101935.36;;;13.54;54.72
51617;BME280;37697;52.588;13.394;2023-04-08T14:59:32;101930.88;;;13.59;55.49
51617;BME280;37697;52.588;13.394;2023-04-08T15:04:58;101932.20;;;13.76;55.10
51617;BME280;37697;52.588;13.394;2023-04-08T15:10:24;101935.96;;;13.76;55.00
51617;BME280;37697;52.588;13.394;2023-04-08T15:15:49;101931.75;;;13.54;55.10
51617;BME280;37697;52.588;13.394;2023-04-08T15:21:08;101934.48;;;13.24;55.57
51617;BME280;37697;52.588;13.394;2023-04-08T15:26:16;101937.73;;;12.96;53.99
51617;BME280;37697;52.588;13.394;2023-04-08T15:31:32;101940.54;;;12.92;55.03
51617;BME280;37697;52.588;13.394;2023-04-08T15:36:58;101936.99;;;13.04;55.10
51617;BME280;37697;52.588;13.394;2023-04-08T15:42:23;101932.52;;;13.19;54.94
51617;BME280;37697;52.588;13.394;2023-04-08T15:47:49;101935.92;;;13.23;55.38
51617;BME280;37697;52.588;13.394;2023-04-08T15:52:56;101937.34;;;13.25;55.22
51617;BME280;37697;52.588;13.394;2023-04-08T15:58:12;101934.88;;;13.07;55.02
51617;BME280;37697;52.588;13.394;2023-04-08T16:03:18;101942.31;;;12.84;55.68
51617;BME280;37697;52.588;13.394;2023-04-08T16:08:43;101942.43;;;12.62;55.80
51617;BME280;37697;52.588;13.394;2023-04-08T16:13:53;101941.13;;;12.50;55.63
51617;BME280;37697;52.588;13.394;2023-04-08T16:19:08;101944.37;;;12.55;56.32
51617;BME280;37697;52.588;13.394;2023-04-08T16:24:27;101942.80;;;12.49;56.17
51617;BME280;37697;52.588;13.394;2023-04-08T16:29:43;101949.68;;;12.37;56.50
51617;BME280;37697;52.588;13.394;2023-04-08T16:35:01;101950.73;;;12.27;56.31
51617;BME280;37697;52.588;13.394;2023-04-08T16:40:27;101957.13;;;12.21;56.82
51617;BME280;37697;52.588;13.394;2023-04-08T16:45:53;101960.23;;;12.16;57.24
51617;BME280;37697;52.588;13.394;2023-04-08T16:51:19;101969.55;;;12.08;57.39
51617;BME280;37697;52.588;13.394;2023-04-08T16:56:37;101975.32;;;11.92;58.22
51617;BME280;37697;52.588;13.394;2023-04-08T17:02:03;101977.08;;;11.72;59.50
51617;BME280;37697;52.588;13.394;2023-04-08T17:07:29;101980.46;;;11.64;60.62
51617;BME280;37697;52.588;13.394;2023-04-08T17:12:55;101986.49;;;11.57;61.21
51617;BME280;37697;52.588;13.394;2023-04-08T17:18:20;101994.34;;;11.52;61.97
51617;BME280;37697;52.588;13.394;2023-04-08T17:23:45;102000.20;;;11.46;62.44
51617;BME280;37697;52.588;13.394;2023-04-08T17:29:11;102003.80;;;11.41;62.88
51617;BME280;37697;52.588;13.394;2023-04-08T17:34:37;102013.91;;;11.34;63.34
51617;BME280;37697;52.588;13.394;2023-04-08T17:40:03;102033.59;;;11.25;62.75
51617;BME280;37697;52.588;13.394;2023-04-08T17:45:29;102052.83;;;10.96;61.42
51617;BME280;37697;52.588;13.394;2023-04-08T17:51:00;102062.66;;;10.55;61.28
51617;BME280;37697;52.588;13.394;2023-04-08T17:56:26;102077.50;;;10.22;61.54
51617;BME280;37697;52.588;13.394;2023-04-08T18:01:53;102085.88;;;9.94;62.04
51617;BME280;37697;52.588;13.394;2023-04-08T18:07:19;102095.75;;;9.73;62.14
51617;BME280;37697;52.588;13.394;2023-04-08T18:12:45;102111.86;;;9.57;62.71
51617;BME280;37697;52.588;13.394;2023-04-08T18:18:16;102127.31;;;9.41;62.76
51617;BME280;37697;52.588;13.394;2023-04-08T18:23:41;102137.21;;;9.25;63.29
51617;BME280;37697;52.588;13.394;2023-04-08T18:29:08;102146.00;;;9.13;63.45
51617;BME280;37697;52.588;13.394;2023-04-08T18:34:33;102156.77;;;9.02;63.70
51617;BME280;37697;52.588;13.394;2023-04-08T18:39:59;102162.38;;;8.92;63.35
51617;BME280;37697;52.588;13.394;2023-04-08T18:45:25;102169.19;;;8.78;63.35
51617;BME280;37697;52.588;13.394;2023-04-08T18:50:51;102175.21;;;8.66;63.92
51617;BME280;37697;52.588;13.394;2023-04-08T18:56:17;102182.52;;;8.59;64.05
51617;BME280;37697;52.588;13.394;2023-04-08T19:01:43;102190.41;;;8.50;64.41
51617;BME280;37697;52.588;13.394;2023-04-08T19:07:09;102196.31;;;8.43;64.60
51617;BME280;37697;52.588;13.394;2023-04-08T19:12:35;102196.72;;;8.35;64.45
51617;BME280;37697;52.588;13.394;2023-04-08T19:18:00;102197.13;;;8.29;64.85
51617;BME280;37697;52.588;13.394;2023-04-08T19:23:26;102198.86;;;8.27;64.74
51617;BME280;37697;52.588;13.394;2023-04-08T19:28:52;102201.52;;;8.25;64.60
51617;BME280;37697;52.588;13.394;2023-04-08T19:34:18;102202.67;;;8.22;64.85
51617;BME280;37697;52.588;13.394;2023-04-08T19:40:04;102206.98;;;8.17;64.87
51617;BME280;37697;52.588;13.394;2023-04-08T19:45:30;102207.56;;;8.11;64.60
51617;BME280;37697;52.588;13.394;2023-04-08T19:56:51;102211.16;;;8.02;64.80
51617;BME280;37697;52.588;13.394;2023-04-08T20:02:16;102207.49;;;7.99;64.76
51617;BME280;37697;52.588;13.394;2023-04-08T20:07:43;102213.75;;;7.92;64.72
51617;BME280;37697;52.588;13.394;2023-04-08T20:13:08;102218.80;;;7.86;64.65
51617;BME280;37697;52.588;13.394;2023-04-08T20:18:34;102223.84;;;7.83;64.57
51617;BME280;37697;52.588;13.394;2023-04-08T20:23:39;102225.48;;;7.82;64.94
51617;BME280;37697;52.588;13.394;2023-04-08T20:28:48;102229.94;;;7.82;65.03
51617;BME280;37697;52.588;13.394;2023-04-08T20:33:55;102224.55;;;7.78;64.95
51617;BME280;37697;52.588;13.394;2023-04-08T20:39:00;102222.55;;;7.70;64.81
51617;BME280;37697;52.588;13.394;2023-04-08T20:44:06;102222.74;;;7.60;65.21
51617;BME280;37697;52.588;13.394;2023-04-08T20:49:14;102221.86;;;7.42;65.10
51617;BME280;37697;52.588;13.394;2023-04-08T20:54:20;102224.97;;;7.31;65.43
51617;BME280;37697;52.588;13.394;2023-04-08T20:59:26;102222.10;;;7.31;65.71
51617;BME280;37697;52.588;13.394;2023-04-08T21:04:32;102225.71;;;7.28;66.07
51617;BME280;37697;52.588;13.394;2023-04-08T21:09:37;102227.27;;;7.20;66.27
51617;BME280;37697;52.588;13.394;2023-04-08T21:14:43;102229.09;;;7.18;66.79
51617;BME280;37697;52.588;13.394;2023-04-08T21:19:49;102232.86;;;7.20;66.81
51617;BME280;37697;52.588;13.394;2023-04-08T21:24:56;102230.20;;;7.18;67.13
51617;BME280;37697;52.588;13.394;2023-04-08T21:30:02;102228.17;;;7.19;67.13
51617;BME280;37697;52.588;13.394;2023-04-08T21:35:08;102232.80;;;7.20;67.54
51617;BME280;37697;52.588;13.394;2023-04-08T21:40:14;102235.70;;;7.16;67.64
51617;BME280;37697;52.588;13.394;2023-04-08T21:45:20;102236.83;;;7.10;67.61
51617;BME280;37697;52.588;13.394;2023-04-08T21:50:25;102233.95;;;7.03;67.88
51617;BME280;37697;52.588;13.394;2023-04-08T21:55:31;102233.42;;;6.99;67.78
51617;BME280;37697;52.588;13.394;2023-04-08T22:00:36;102231.69;;;6.84;67.99
51617;BME280;37697;52.588;13.394;2023-04-08T22:05:41;102230.69;;;6.78;68.31
51617;BME280;37697;52.588;13.394;2023-04-08T22:10:47;102228.02;;;6.78;68.60
51617;BME280;37697;52.588;13.394;2023-04-08T22:15:52;102221.68;;;6.69;68.51
51617;BME280;37697;52.588;13.394;2023-04-08T22:20:57;102215.82;;;6.49;68.54
51617;BME280;37697;52.588;13.394;2023-04-08T22:26:03;102215.14;;;6.38;68.54
51617;BME280;37697;52.588;13.394;2023-04-08T22:31:10;102217.91;;;6.30;68.59
51617;BME280;37697;52.588;13.394;2023-04-08T22:36:16;102211.96;;;6.18;68.58
51617;BME280;37697;52.588;13.394;2023-04-08T22:41:23;102209.34;;;5.94;68.40
51617;BME280;37697;52.588;13.394;2023-04-08T22:46:28;102209.62;;;5.79;68.79
51617;BME280;37697;52.588;13.394;2023-04-08T22:51:33;102207.78;;;5.71;68.80
51617;BME280;37697;52.588;13.394;2023-04-08T22:56:39;102206.02;;;5.57;69.11
51617;BME280;37697;52.588;13.394;2023-04-08T23:01:44;102198.16;;;5.40;69.17
51617;BME280;37697;52.588;13.394;2023-04-08T23:06:50;102202.52;;;5.26;69.18
51617;BME280;37697;52.588;13.394;2023-04-08T23:11:55;102204.52;;;5.15;69.47
51617;BME280;37697;52.588;13.394;2023-04-08T23:17:02;102209.95;;;5.04;69.39
51617;BME280;37697;52.588;13.394;2023-04-08T23:22:09;102209.42;;;4.93;69.50
51617;BME280;37697;52.588;13.394;2023-04-08T23:27:15;102202.34;;;4.82;69.39
51617;BME280;37697;52.588;13.394;2023-04-08T23:32:20;102201.89;;;4.70;69.69
51617;BME280;37697;52.588;13.394;2023-04-08T23:37:26;102206.63;;;4.44;69.87
51617;BME280;37697;52.588;13.394;2023-04-08T23:42:32;102203.23;;;4.24;70.14
51617;BME280;37697;52.588;13.394;2023-04-08T23:47:37;102204.41;;;4.21;70.53
51617;BME280;37697;52.588;13.394;2023-04-08T23:52:42;102203.05;;;4.14;70.64
51617;BME280;37697;52.588;13.394;2023-04-08T23:57:48;102199.80;;;3.97;70.59
